Hidden Meadows (351, 353) Station Data

Red Flag Warning: No
Fire Weather Zone: 250
SDGE Region: North East
Lat/Lon: 33.227/-117.094

Observations

Time Wind Speed/Gust Temp(F) RH Fuel Moist Fuel Temp(F) Dewpt(F) Tmax(F) Tmin(F) Accum Precip 10-min Precip SL Press(mb)
6/27 5:00pm 256 3 G 7 90° 14% - - 34° 95.1° 76.1° - - -
6/27 4:50pm 271 4 G 8 90° 12% - - 32° 95.1° 76.1° - - -
6/27 4:40pm 255 4 G 8 91° 13% - - 32° 95.1° 76.1° - - -
6/27 4:30pm 249 4 G 8 90° 13% - - 33° 95.1° 76.1° - - -
6/27 4:20pm 264 5 G 10 91° 13% - - 34° 95.1° 76.1° - - -
6/27 4:10pm 270 5 G 10 91° 12% - - 32° 95.1° 76.1° - - -
6/27 4:00pm 270 5 G 10 91° 11% - - 30° 95.1° 76.1° - - -
6/27 3:50pm 264 5 G 10 91° 11% - - 30° 95.1° 76.1° - - -
6/27 3:40pm 265 5 G 10 91° 13% - - 33° 95.1° 76.1° - - -
6/27 3:20pm 270 4 G 11 91° 12% - - 31° 95.1° 76.1° - - -
6/27 3:10pm 264 5 G 9 92° 12% - - 31° 95.1° 76.1° - - -
6/27 3:00pm 237 4 G 9 92° 11% - - 30° 95.1° 76.1° - - -
6/27 2:50pm 244 3 G 9 93° 11% - - 30° 95.1° 76.1° - - -
6/27 2:40pm 207 3 G 10 93° 13% - - 35° 95.1° 76.1° - - -
6/27 2:30pm 257 3 G 8 93° 15% - - 38° 95.1° 76.1° - - -
6/27 2:20pm 250 3 G 9 92° 15% - - 37° 95.1° 76.1° - - -
6/27 2:10pm 271 6 G 11 91° 16% - - 38° 95.1° 76.1° - - -
6/27 2:00pm 267 6 G 12 92° 14% - - 36° 95.1° 76.1° - - -
6/27 1:50pm 277 6 G 11 93° 12% - - 33° 95.1° 76.1° - - -
6/27 1:40pm 264 5 G 10 93° 10% - - 29° 95.1° 76.1° - - -
6/27 1:30pm 267 5 G 11 93° 9% - - 25° 95.1° 76.1° - - -
6/27 1:20pm 257 5 G 11 94° 9% - - 27° 95.1° 76.1° - - -
6/27 1:10pm 266 4 G 8 93° 11% - - 31° 95.1° 76.1° - - -
6/27 1:00pm 257 4 G 8 94° 12% - - 33° 95.1° 76.1° - - -
6/27 12:50pm 254 6 G 10 94° 13% - - 35° 95.1° 76.1° - - -
6/27 12:40pm 290 5 G 10 93° 14% - - 36° 95.1° 76.1° - - -
6/27 12:30pm 317 7 G 15 93° 14% - - 37° 95.1° 76.1° - - -
6/27 12:20pm 335 8 G 14 93° 16% - - 40° 95.1° 76.1° - - -
6/27 12:10pm 326 9 G 16 92° 16% - - 40° 95.1° 76.1° - - -
6/27 12:00pm 330 9 G 15 92° 15% - - 39° 95.1° 76.1° - - -
6/27 11:50am 310 7 G 15 93° 13% - - 35° 95.1° 76.1° - - -
6/27 11:40am 289 4 G 10 95° 11% - - 31° 95.1° 76.1° - - -
6/27 11:30am 287 4 G 9 93° 10% - - 28° 94° 76.1° - - -
6/27 11:20am 308 4 G 8 93° 11% - - 31° 93.6° 76.1° - - -
6/27 11:10am 295 4 G 8 93° 10% - - 27° 93.3° 76.1° - - -
6/27 11:00am 336 5 G 9 91° 13% - - 34° 93.1° 76.1° - - -
6/27 10:50am 346 7 G 11 90° 14% - - 35° 91.3° 76.1° - - -
6/27 10:40am 346 6 G 10 90° 13% - - 33° 91.3° 76.1° - - -
6/27 10:30am 318 5 G 9 89° 13% - - 32° 90.5° 76.1° - - -
6/27 10:20am 332 6 G 8 90° 12% - - 31° 90.5° 76.1° - - -
6/27 10:10am 318 4 G 7 90° 12% - - 30° 90.2° 76.1° - - -
6/27 10:00am 332 3 G 6 89° 12% - - 29° 89.9° 76.1° - - -
6/27 9:50am 307 3 G 5 89° 12% - - 29° 89.3° 76.1° - - -
6/27 9:40am 269 2 G 6 89° 11% - - 27° 89.1° 76.1° - - -
6/27 9:30am 275 2 G 5 88° 11% - - 26° 88.3° 76.1° - - -
6/27 9:20am 330 3 G 6 87° 10% - - 25° 87.9° 76.1° - - -
6/27 9:10am 346 4 G 5 86° 11% - - 25° 87.9° 76.1° - - -
6/27 9:00am 335 3 G 5 86° 11% - - 26° 87.9° 76.1° - - -
6/27 8:50am 325 3 G 5 86° 11% - - 26° 87.9° 76.1° - - -
6/27 8:40am 32 2 G 4 87° 10% - - 25° 87.9° 76.1° - - -
6/27 8:30am 107 2 G 4 87° 10% - - 23° 87.3° 76.1° - - -
6/27 8:20am 118 2 G 4 86° 11% - - 24° 86.2° 76.1° - - -
6/27 8:10am 117 3 G 4 85° 11% - - 24° 85.3° 76.1° - - -
6/27 8:00am 113 3 G 4 84° 12% - - 26° 84.1° 76.1° - - -
6/27 7:40am 119 2 G 3 83° 13% - - 27° 83.5° 76.1° - - -
6/27 7:30am 113 3 G 4 82° 13% - - 26° 82.9° 76.1° - - -
6/27 7:20am 116 2 G 3 81° 13% - - 26° 82.9° 76.1° - - -
6/27 7:10am 116 2 G 3 81° 12% - - 24° 82.9° 76.1° - - -
6/27 7:00am 125 2 G 3 79° 13% - - 24° 82.9° 76.1° - - -
6/27 6:50am 126 3 G 4 80° 12% - - 23° 82.9° 76.1° - - -
6/27 6:40am 125 2 G 3 80° 12% - - 22° 82.9° 76.1° - - -
6/27 6:30am 120 3 G 4 79° 12% - - 21° 82.9° 76.1° - - -
6/27 6:20am 129 2 G 3 81° 11% - - 21° 82.9° 76.1° - - -
6/27 6:10am 241 0 G 1 82° 9% - - 18° 82.9° 76.1° - - -
6/27 6:00am 196 2 G 3 82° 10% - - 20° 82.9° 76.1° - - -
6/27 5:50am 192 2 G 3 82° 10% - - 20° 82.9° 76.1° - - -
6/27 5:40am 228 1 G 2 81° 10% - - 19° 82.9° 76.1° - - -
6/27 5:30am 187 1 G 1 82° 11% - - 21° 82.9° 76.1° - - -
6/27 5:20am 202 1 G 2 81° 11% - - 22° 82.9° 76.1° - - -
6/27 5:10am 173 1 G 2 81° 13% - - 24° 82.9° 76.1° - - -
6/27 5:00am 143 1 G 2 80° 13% - - 24° 82.9° 76.1° - - -
6/27 4:50am 137 3 G 4 79° 12% - - 22° 82.9° 76.1° - - -
6/27 4:40am 135 4 G 5 79° 13% - - 24° 82.9° 76.1° - - -
6/27 4:30am 137 3 G 4 79° 14% - - 26° 82.9° 76.1° - - -
6/27 4:20am 162 1 G 3 79° 13% - - 24° 82.9° 76.1° - - -
6/27 4:10am 306 1 G 2 78° 13% - - 24° 82.9° 76.1° - - -
6/27 4:00am 292 0 G 2 80° 14% - - 26° 82.9° 76.1° - - -
6/27 3:50am 250 0 G 3 80° 14% - - 26° 82.9° 76.1° - - -
6/27 3:40am 217 1 G 3 81° 13% - - 26° 82.9° 76.1° - - -
6/27 3:30am 166 2 G 3 81° 13% - - 26° 82.9° 76.1° - - -
6/27 3:20am 156 3 G 4 81° 13% - - 26° 82.9° 76.1° - - -
6/27 3:10am 146 2 G 3 82° 12% - - 24° 82.9° 76.1° - - -
6/27 3:00am 169 2 G 4 82° 12% - - 24° 82.9° 76.1° - - -
6/27 2:50am 129 3 G 5 80° 14% - - 26° 82° 76.1° - - -
6/27 2:40am 135 4 G 5 80° 14% - - 26° 82° 76.1° - - -
6/27 2:30am 132 4 G 5 79° 16% - - 28° 82° 76.1° - - -
6/27 2:20am 129 3 G 4 79° 16% - - 30° 82° 76.1° - - -
6/27 2:10am 138 3 G 5 81° 16% - - 30° 82° 76.1° - - -
6/27 2:00am 138 4 G 5 80° 16% - - 30° 82° 76.1° - - -
6/27 1:50am 138 3 G 4 80° 17% - - 31° 80.9° 76.1° - - -
6/27 1:40am 134 2 G 3 79° 18% - - 31° 80.9° 76.1° - - -
6/27 1:30am 134 2 G 4 78° 19% - - 32° 80.9° 76.1° - - -
6/27 1:20am 126 2 G 4 77° 19% - - 32° 80.9° 76.1° - - -
6/27 1:10am 112 3 G 4 77° 21% - - 33° 80.9° 76.1° - - -
6/27 1:00am 124 3 G 5 77° 22% - - 36° 80.9° 76.4° - - -
6/27 12:50am 126 3 G 6 77° 23% - - 37° 80.9° 76.4° - - -
6/27 12:40am 163 4 G 8 80° 20% - - 36° 80.9° 78.2° - - -
6/27 12:30am 168 5 G 8 80° 21% - - 36° 80.9° 78.2° - - -
6/27 12:20am 187 4 G 8 79° 22% - - 36° 80.9° 78.2° - - -
6/27 12:10am 212 3 G 8 80° 20% - - 35° 80.9° 79° - - -
6/27 12:00am 186 4 G 7 81° 18% - - 34° 100.1° 77° - - -
6/26 11:50pm 180 4 G 6 81° 18% - - 34° 100.1° 77° - - -
6/26 11:40pm 183 4 G 6 81° 19% - - 35° 100.1° 77° - - -
6/26 11:30pm 143 2 G 4 78° 22% - - 36° 100.1° 77° - - -
6/26 11:20pm 135 3 G 4 79° 22% - - 37° 100.1° 77.3° - - -
6/26 11:10pm 135 3 G 4 81° 21% - - 37° 100.1° 78.3° - - -
6/26 11:00pm 144 4 G 5 80° 23% - - 39° 100.1° 78.3° - - -
6/26 10:50pm 141 2 G 4 80° 23% - - 39° 100.1° 78.3° - - -
6/26 10:40pm 166 4 G 6 81° 23% - - 39° 100.1° 78.3° - - -
6/26 10:30pm 167 5 G 7 81° 23% - - 40° 100.1° 78.3° - - -
6/26 10:20pm 165 4 G 5 81° 23% - - 39° 100.1° 78.3° - - -
6/26 10:10pm 141 3 G 4 80° 23% - - 40° 100.1° 78.3° - - -
6/26 10:00pm 131 3 G 4 80° 24% - - 40° 100.1° 78.3° - - -
6/26 9:50pm 140 2 G 3 81° 23% - - 40° 100.1° 78.3° - - -
6/26 9:40pm 184 0 G 2 81° 23% - - 40° 100.1° 78.3° - - -
6/26 9:30pm 252 1 G 2 81° 23% - - 40° 100.1° 78.3° - - -
6/26 9:20pm 246 2 G 3 82° 23% - - 40° 100.1° 78.3° - - -
6/26 9:10pm 250 1 G 2 82° 23% - - 40° 100.1° 78.3° - - -
6/26 9:00pm 227 1 G 2 82° 23% - - 40° 100.1° 78.3° - - -
6/26 8:50pm 0 0 G 0 82° 23% - - 40° 100.1° 78.3° - - -
6/26 8:40pm 0 0 G 0 82° 22% - - 39° 100.1° 78.3° - - -
6/26 8:30pm 66 0 G 1 82° 22% - - 39° 100.1° 78.3° - - -
6/26 8:20pm 31 1 G 2 83° 21% - - 39° 100.1° 78.3° - - -
6/26 8:10pm 336 2 G 3 83° 21% - - 39° 100.1° 78.3° - - -
6/26 8:00pm 328 2 G 3 84° 20% - - 38° 100.1° 78.3° - - -
6/26 7:50pm 351 3 G 5 86° 18% - - 37° 100.1° 78.3° - - -
6/26 7:40pm 320 4 G 10 88° 13% - - 30° 100.1° 78.3° - - -
6/26 7:30pm 291 6 G 10 89° 10% - - 27° 100.1° 78.3° - - -
6/26 7:20pm 291 7 G 13 90° 9% - - 24° 100.1° 78.3° - - -
6/26 7:10pm 296 7 G 15 90° 8% - - 22° 100.1° 78.3° - - -
6/26 7:00pm 300 8 G 12 91° 7% - - 20° 100.1° 78.3° - - -
6/26 6:50pm 298 8 G 12 92° 7% - - 18° 100.1° 78.3° - - -
6/26 6:40pm 297 9 G 12 92° 6% - - 17° 100.1° 78.3° - - -
6/26 6:30pm 297 11 G 17 92° 6% - - 17° 100.1° 78.3° - - -
6/26 6:20pm 297 11 G 17 93° 7% - - 18° 100.1° 78.3° - - -
6/26 6:10pm 296 11 G 16 93° 7% - - 20° 100.1° 78.3° - - -
6/26 6:00pm 302 11 G 17 94° 7% - - 20° 100.1° 78.3° - - -
6/26 5:50pm 293 11 G 18 94° 8% - - 22° 100.1° 78.3° - - -
6/26 5:40pm 304 11 G 16 94° 7% - - 22° 100.1° 78.3° - - -
6/26 5:30pm 305 9 G 14 94° 7% - - 22° 100.1° 78.3° - - -
6/26 5:20pm 297 11 G 17 94° 7% - - 21° 100.1° 78.3° - - -
6/26 5:10pm 297 11 G 15 95° 7% - - 22° 100.1° 78.3° - - -
6/26 5:00pm 291 8 G 13 96° 7% - - 21° 100.1° 78.3° - - -
6/26 4:50pm 291 7 G 13 97° 8% - - 25° 100.1° 78.3° - - -
6/26 4:40pm 292 8 G 14 97° 8% - - 24° 100.1° 78.3° - - -
6/26 4:30pm 294 8 G 14 97° 8% - - 25° 100.1° 78.3° - - -
6/26 4:20pm 311 8 G 13 96° 10% - - 30° 100.1° 78.3° - - -
6/26 4:10pm 305 8 G 13 96° 11% - - 32° 100.1° 78.3° - - -
6/26 4:00pm 302 8 G 14 97° 9% - - 29° 100.1° 78.3° - - -
6/26 3:50pm 298 9 G 15 97° 9% - - 29° 100.1° 78.3° - - -
6/26 3:40pm 299 9 G 14 98° 7% - - 22° 100.1° 78.3° - - -
6/26 3:30pm 287 10 G 16 97° 6% - - 19° 100.1° 78.3° - - -
6/26 3:20pm 287 9 G 16 97° 7% - - 22° 100.1° 78.3° - - -
6/26 3:10pm 285 9 G 15 98° 6% - - 21° 100.1° 78.3° - - -
6/26 3:00pm 288 9 G 15 98° 6% - - 19° 100.1° 78.3° - - -
6/26 2:50pm 291 10 G 18 97° 6% - - 18° 100.1° 78.3° - - -
6/26 2:40pm 292 12 G 18 97° 6% - - 19° 100.1° 78.3° - - -
6/26 2:30pm 294 10 G 16 98° 6% - - 21° 100.1° 78.3° - - -
6/26 2:20pm 289 10 G 19 98° 6% - - 20° 100.1° 78.3° - - -
6/26 2:10pm 304 11 G 16 98° 9% - - 28° 100.1° 78.3° - - -
6/26 2:00pm 312 12 G 18 99° 8% - - 26° 100.1° 78.3° - - -
6/26 1:50pm 315 11 G 17 98° 9% - - 28° 100.1° 78.3° - - -
6/26 1:40pm 312 10 G 17 98° 9% - - 31° 100.1° 78.3° - - -
6/26 1:30pm 322 9 G 15 98° 11% - - 34° 100.1° 78.3° - - -
6/26 1:20pm 320 10 G 16 98° 11% - - 33° 100.1° 78.3° - - -
6/26 1:10pm 320 11 G 19 98° 10% - - 33° 100.1° 78.3° - - -
6/26 1:00pm 316 8 G 15 99° 11% - - 34° 100.1° 78.3° - - -
6/26 12:50pm 321 7 G 13 98° 11% - - 35° 98.9° 78.3° - - -
6/26 12:40pm 340 9 G 14 98° 11% - - 35° 98.4° 78.3° - - -
6/26 12:30pm 348 9 G 14 97° 13% - - 38° 98.4° 78.3° - - -
6/26 12:20pm 336 8 G 13 97° 14% - - 40° 98.4° 78.3° - - -
6/26 12:10pm 339 7 G 11 96° 18% - - 45° 98.1° 78.3° - - -
6/26 12:00pm 336 7 G 11 96° 17% - - 44° 98.1° 78.3° - - -
6/26 11:50am 331 7 G 11 95° 20% - - 47° 98.1° 78.3° - - -
6/26 11:40am 330 7 G 10 94° 24% - - 52° 98.1° 78.3° - - -
6/26 11:30am 329 7 G 11 94° 25% - - 52° 98.1° 78.3° - - -
6/26 11:20am 341 7 G 11 95° 23% - - 51° 98.1° 78.3° - - -
6/26 11:10am 330 7 G 13 96° 19% - - 46° 98.1° 78.3° - - -
6/26 11:00am 312 6 G 12 97° 15% - - 42° 98.1° 78.3° - - -
6/26 10:50am 317 4 G 7 98° 13% - - 39° 98.1° 78.3° - - -
6/26 10:40am 325 3 G 8 97° 13% - - 38° 98.1° 78.3° - - -
6/26 10:30am 328 3 G 6 97° 11% - - 34° 98.1° 78.3° - - -
6/26 10:20am 265 3 G 5 98° 10% - - 33° 98.1° 78.3° - - -
6/26 10:10am 235 2 G 5 97° 11% - - 33° 97.8° 78.3° - - -
6/26 10:00am 216 2 G 5 97° 11% - - 34° 97.5° 78.3° - - -
6/26 9:50am 156 3 G 7 95° 12% - - 35° 95.9° 78.3° - - -
6/26 9:40am 154 5 G 8 94° 12% - - 34° 95.6° 78.3° - - -
6/26 9:30am 164 3 G 8 95° 12% - - 35° 95.6° 78.3° - - -
6/26 9:20am 144 1 G 5 94° 14% - - 37° 94.9° 78.3° - - -
6/26 9:10am 345 2 G 3 93° 15% - - 38° 94.7° 78.3° - - -
6/26 9:00am 311 2 G 4 94° 14% - - 37° 94.7° 78.3° - - -
6/26 8:50am 234 2 G 4 94° 12% - - 33° 94.2° 78.3° - - -
6/26 8:40am 242 1 G 3 94° 12% - - 33° 94.1° 78.3° - - -
6/26 8:30am 205 2 G 5 93° 13% - - 35° 93.7° 78.3° - - -
6/26 8:20am 165 2 G 4 92° 13% - - 34° 92.6° 78.3° - - -
6/26 8:10am 125 2 G 3 90° 17% - - 39° 91° 78.3° - - -
6/26 8:00am 117 2 G 3 89° 17% - - 39° 89.2° 78.3° - - -
6/26 7:50am 119 2 G 2 88° 16% - - 37° 88.8° 78.3° - - -
6/26 7:40am 122 2 G 3 86° 16% - - 35° 87.1° 78.3° - - -
6/26 7:30am 114 3 G 4 85° 16% - - 35° 85.5° 78.3° - - -
6/26 7:20am 121 3 G 4 85° 15% - - 33° 85.5° 78.3° - - -
6/26 7:10am 124 4 G 5 84° 16% - - 32° 85.2° 78.3° - - -
6/26 7:00am 117 3 G 4 84° 16% - - 33° 85.2° 78.3° - - -
6/26 6:50am 136 3 G 4 83° 15% - - 31° 85.2° 78.3° - - -
6/26 6:40am 141 3 G 4 82° 16% - - 31° 85.2° 78.3° - - -
6/26 6:30am 129 2 G 3 83° 15% - - 31° 85.2° 78.3° - - -
6/26 6:20am 122 3 G 4 82° 15% - - 31° 85.2° 78.3° - - -
6/26 6:10am 107 3 G 4 82° 16% - - 31° 85.2° 78.3° - - -
6/26 6:00am 110 2 G 2 83° 15% - - 30° 85.2° 78.3° - - -